Time;durP1;ratioP1;P1;durP2;ratioP2;P2;SDS_P1;SDS_P2;PMS_P1;PMS_P2;Temp;Humidity;BMP_temperature;BMP_pressure;BME280_temperature;BME280_humidity;BME280_pressure;Samples;Min_cycle;Max_cycle;Signal;HPM_P1;HPM_P2
2022/10/17 00:00:48;;;;;;;14.70;5.93;;;;;;;7.80;73.87;101882.59;4973671;28;20468;-71
2022/10/17 00:03:14;;;;;;;11.80;5.43;;;;;;;8.13;73.90;101908.91;4973838;28;20027;-72
2022/10/17 00:05:41;;;;;;;14.25;6.78;;;;;;;8.26;73.44;101911.53;4973601;28;20027;-72
2022/10/17 00:08:07;;;;;;;14.13;6.93;;;;;;;8.07;74.13;101901.66;4973064;28;20751;-71
2022/10/17 00:10:33;;;;;;;10.63;6.15;;;;;;;8.19;73.75;101910.22;4973451;28;20541;-70
2022/10/17 00:12:58;;;;;;;14.52;6.47;;;;;;;8.20;73.06;101906.88;4973222;28;20109;-72
2022/10/17 00:15:24;;;;;;;9.57;5.85;;;;;;;8.20;72.36;101896.59;4972417;28;20071;-72
2022/10/17 00:17:49;;;;;;;9.20;5.68;;;;;;;7.86;72.53;101860.81;4973336;28;20050;-78
2022/10/17 00:20:15;;;;;;;14.13;6.22;;;;;;;8.01;71.73;101891.84;4973104;28;20441;-74
2022/10/17 00:22:41;;;;;;;12.13;6.50;;;;;;;8.14;71.33;101911.59;4972867;28;20490;-74
2022/10/17 00:25:07;;;;;;;10.32;6.55;;;;;;;8.14;71.18;101908.09;4973015;28;20033;-75
2022/10/17 00:27:36;;;;;;;12.10;5.82;;;;;;;8.00;71.13;101882.34;4973208;28;20034;-72
2022/10/17 00:30:03;;;;;;;12.38;6.45;;;;;;;7.96;69.92;101853.72;4973098;28;20050;-72
2022/10/17 00:32:29;;;;;;;18.98;6.63;;;;;;;7.72;71.73;101918.94;4972923;28;20131;-72
2022/10/17 00:34:54;;;;;;;16.05;6.72;;;;;;;7.42;73.31;101915.94;4972746;28;20109;-72
2022/10/17 00:37:20;;;;;;;10.35;5.88;;;;;;;7.29;73.60;101864.47;4972649;28;20022;-72
2022/10/17 00:39:45;;;;;;;13.07;6.10;;;;;;;7.74;73.44;101919.06;4972947;28;20019;-71
2022/10/17 00:42:14;;;;;;;12.98;6.32;;;;;;;7.62;72.50;101867.66;4972956;28;20022;-74
2022/10/17 00:44:39;;;;;;;13.60;5.90;;;;;;;7.99;72.85;101920.78;4973066;28;20030;-72
2022/10/17 00:47:10;;;;;;;15.25;6.50;;;;;;;8.20;72.03;101921.41;4972848;28;20261;-73
2022/10/17 00:49:37;;;;;;;11.73;5.40;;;;;;;8.31;70.82;101906.72;4970541;28;20045;-74
2022/10/17 00:52:10;;;;;;;10.60;5.22;;;;;;;8.43;70.09;101902.41;4972555;28;20041;-74
2022/10/17 00:54:50;;;;;;;13.65;5.13;;;;;;;8.48;69.55;101916.53;4972531;28;20034;-72
2022/10/17 00:57:16;;;;;;;12.68;5.68;;;;;;;8.26;69.96;101919.25;4972777;28;20031;-73
2022/10/17 00:59:44;;;;;;;10.90;5.30;;;;;;;7.94;71.85;101910.19;4972671;28;20023;-73
2022/10/17 01:02:12;;;;;;;10.18;5.05;;;;;;;7.80;73.25;101921.16;4972332;28;20109;-73
2022/10/17 01:04:40;;;;;;;9.45;5.45;;;;;;;7.92;73.04;101917.81;4972185;28;20034;-70
2022/10/17 01:07:06;;;;;;;11.23;4.90;;;;;;;7.94;72.66;101928.19;4972236;28;20056;-73
2022/10/17 01:09:32;;;;;;;12.55;5.15;;;;;;;7.59;74.07;101924.00;4972536;28;20030;-73
2022/10/17 01:12:03;;;;;;;8.23;5.10;;;;;;;7.61;74.83;101925.88;4972478;28;20114;-72
2022/10/17 01:14:52;;;;;;;11.60;4.97;;;;;;;7.56;74.91;101923.75;4972742;28;20027;-73
2022/10/17 01:17:39;;;;;;;7.90;5.20;;;;;;;7.52;75.05;101921.75;4931270;29;20482;-70
2022/10/17 01:20:17;;;;;;;8.90;4.65;;;;;;;7.27;74.77;101872.03;4948741;29;20132;-73
2022/10/17 01:22:52;;;;;;;11.13;5.00;;;;;;;7.57;74.29;101922.97;4950517;29;20577;-73
2022/10/17 01:25:26;;;;;;;10.90;5.07;;;;;;;7.56;74.57;101913.47;4950025;29;20031;-72
2022/10/17 01:28:13;;;;;;;9.30;5.20;;;;;;;7.46;74.67;101914.47;4950595;28;20039;-73
2022/10/17 01:30:57;;;;;;;11.00;4.93;;;;;;;7.50;74.59;101915.59;4950167;29;20039;-73
2022/10/17 01:33:27;;;;;;;8.32;5.05;;;;;;;7.66;74.00;101921.06;4950140;29;20490;-73
2022/10/17 01:36:32;;;;;;;8.98;4.97;;;;;;;7.81;73.09;101922.94;4950051;29;20047;-73
2022/10/17 01:39:39;;;;;;;10.55;4.97;;;;;;;7.82;70.89;101930.78;4911781;29;20214;-73
2022/10/17 01:42:15;;;;;;;14.43;6.80;;;;;;;7.09;71.23;101928.09;4837004;29;20433;-73
2022/10/17 01:44:49;;;;;;;16.45;7.53;;;;;;;7.09;73.01;101930.66;4837592;29;20049;-73
2022/10/17 01:47:19;;;;;;;13.40;6.95;;;;;;;7.10;73.07;101919.59;4837223;29;20077;-73
2022/10/17 01:49:48;;;;;;;16.20;7.15;;;;;;;7.08;73.05;101926.28;4837340;29;20073;-73
2022/10/17 01:52:24;;;;;;;13.73;6.07;;;;;;;6.81;73.32;101873.78;4836963;29;20038;-73
2022/10/17 01:54:54;;;;;;;11.18;6.22;;;;;;;6.92;73.94;101925.94;4863337;29;20556;-73
2022/10/17 01:57:43;;;;;;;10.15;5.72;;;;;;;6.96;74.79;101931.38;4858578;29;20048;-73
2022/10/17 02:00:14;;;;;;;10.73;5.63;;;;;;;7.06;74.71;101926.97;4874253;29;20181;-75
2022/10/17 02:02:42;;;;;;;9.68;5.05;;;;;;;7.00;74.05;101936.78;4874389;29;20029;-72
2022/10/17 02:05:08;;;;;;;10.38;5.80;;;;;;;6.82;75.27;101908.94;4874603;29;20037;-73
2022/10/17 02:07:34;;;;;;;9.35;5.43;;;;;;;6.92;75.25;101929.38;4874709;29;20128;-70
2022/10/17 02:09:59;;;;;;;8.75;5.47;;;;;;;6.79;75.80;101937.84;4874350;29;20120;-73
2022/10/17 02:12:44;;;;;;;8.98;6.63;;;;;;;6.68;76.42;101948.06;4874574;29;20077;-75
2022/10/17 02:15:12;;;;;;;14.93;8.30;;;;;;;6.24;78.00;101954.09;4879672;29;20116;-73
2022/10/17 02:17:56;;;;;;;18.35;11.30;;;;;;;6.04;79.07;101942.28;4894412;29;20052;-71
2022/10/17 02:20:21;;;;;;;19.83;11.93;;;;;;;6.07;78.77;101940.84;4952493;28;20458;-76
2022/10/17 02:23:12;;;;;;;21.17;11.07;;;;;;;6.11;78.78;101945.44;4952705;28;20027;-72
2022/10/17 02:25:44;;;;;;;18.33;10.45;;;;;;;6.02;78.73;101947.28;4952173;28;20058;-70
2022/10/17 02:28:12;;;;;;;18.48;9.45;;;;;;;6.20;78.26;101957.22;5007917;28;20120;-74
2022/10/17 02:30:46;;;;;;;13.30;8.13;;;;;;;6.12;77.37;101907.91;5008038;28;20679;-74
2022/10/17 02:33:17;;;;;;;9.77;5.95;;;;;;;6.52;75.66;101958.81;5008052;28;20046;-73
2022/10/17 02:35:52;;;;;;;11.18;6.95;;;;;;;6.41;75.94;101956.31;5008100;28;20412;-75
2022/10/17 02:38:19;;;;;;;10.35;6.40;;;;;;;6.33;75.68;101959.97;5008456;28;20424;-73
2022/10/17 02:40:45;;;;;;;13.60;7.13;;;;;;;5.85;78.23;101958.72;4979712;28;20102;-72
2022/10/17 02:43:13;;;;;;;11.15;6.65;;;;;;;5.92;78.33;101950.75;5011909;28;20555;-70
2022/10/17 02:45:39;;;;;;;9.15;6.60;;;;;;;5.99;78.57;101963.34;5012099;28;20088;-72
2022/10/17 02:48:09;;;;;;;26.65;16.65;;;;;;;6.17;78.00;101977.47;5011859;28;20049;-72
2022/10/17 02:51:14;;;;;;;23.77;18.63;;;;;;;6.30;76.28;101969.97;5011892;28;20114;-73
2022/10/17 02:53:52;;;;;;;48.30;40.50;;;;;;;6.03;76.54;101961.91;4915287;29;20047;-72
2022/10/17 02:56:20;;;;;;;59.72;49.08;;;;;;;5.98;76.83;101971.78;4915401;29;20118;-75
2022/10/17 02:58:51;;;;;;;46.83;37.65;;;;;;;5.97;76.79;101977.66;4902891;29;20053;-73
2022/10/17 03:01:17;;;;;;;34.92;27.85;;;;;;;5.96;76.33;101983.53;4877784;29;20080;-72
2022/10/17 03:03:43;;;;;;;43.97;37.63;;;;;;;5.87;76.41;101982.81;4877595;29;20563;-72
2022/10/17 03:06:09;;;;;;;65.80;55.30;;;;;;;5.83;76.60;101976.56;4877626;29;20041;-73
2022/10/17 03:08:34;;;;;;;99.05;87.90;;;;;;;5.86;76.17;101996.41;4877631;29;20036;-72
2022/10/17 03:11:00;;;;;;;76.10;63.75;;;;;;;5.80;75.62;101996.78;4877493;29;20045;-73
2022/10/17 03:13:27;;;;;;;70.75;55.65;;;;;;;5.86;75.22;101988.72;4877577;29;20180;-72
2022/10/17 03:15:55;;;;;;;63.65;52.47;;;;;;;5.79;74.70;101953.09;4877452;29;20045;-72
2022/10/17 03:18:20;;;;;;;29.02;22.80;;;;;;;5.94;74.49;101992.81;4877256;29;20061;-71
2022/10/17 03:20:47;;;;;;;27.42;22.50;;;;;;;5.89;74.39;101994.06;4877338;29;20048;-72
2022/10/17 03:23:12;;;;;;;26.33;16.65;;;;;;;5.40;76.65;102005.47;4877371;29;20049;-72
2022/10/17 03:25:38;;;;;;;28.50;14.88;;;;;;;5.17;77.90;101990.00;4877418;29;20099;-72
2022/10/17 03:28:04;;;;;;;28.33;13.80;;;;;;;5.09;78.63;101987.56;4877195;29;20037;-73
2022/10/17 03:30:30;;;;;;;32.97;13.73;;;;;;;5.07;78.53;101992.56;4935554;29;20043;-72
2022/10/17 03:32:59;;;;;;;16.02;10.95;;;;;;;5.16;78.46;101995.88;4955060;28;20027;-73
2022/10/17 03:35:25;;;;;;;15.32;9.07;;;;;;;5.32;75.29;101992.00;4955042;28;20553;-72
2022/10/17 03:37:51;;;;;;;13.25;8.52;;;;;;;5.28;75.38;102003.69;4954994;28;20035;-72
2022/10/17 03:40:16;;;;;;;16.45;7.68;;;;;;;5.35;76.11;102005.97;4955025;29;20035;-71
2022/10/17 03:42:42;;;;;;;12.27;6.82;;;;;;;5.50;76.07;102003.78;4954961;29;20031;-72
2022/10/17 03:45:07;;;;;;;9.63;6.47;;;;;;;5.56;75.77;102003.38;4955098;29;20057;-69
2022/10/17 03:47:33;;;;;;;11.07;6.03;;;;;;;5.64;75.76;102010.03;4955131;29;20433;-72
2022/10/17 03:49:58;;;;;;;12.35;6.95;;;;;;;5.70;75.37;102007.06;4953826;28;20023;-72
2022/10/17 03:52:24;;;;;;;10.85;6.15;;;;;;;5.79;75.02;102009.50;4954739;28;20046;-71
2022/10/17 03:54:50;;;;;;;11.18;6.10;;;;;;;5.74;73.87;102013.34;4984680;28;20034;-71
2022/10/17 03:57:16;;;;;;;14.30;6.82;;;;;;;5.60;73.83;102015.66;4993540;28;20034;-72
2022/10/17 03:59:42;;;;;;;9.73;6.30;;;;;;;5.55;72.97;102010.97;4993398;28;20023;-72
2022/10/17 04:02:07;;;;;;;9.77;6.43;;;;;;;5.45;73.59;102019.56;4993526;28;20033;-72
2022/10/17 04:04:32;;;;;;;13.45;6.25;;;;;;;5.22;73.47;102026.22;4993303;28;20036;-72
2022/10/17 04:06:58;;;;;;;9.85;5.35;;;;;;;4.96;75.17;102029.13;4993263;28;20028;-75
2022/10/17 04:09:24;;;;;;;11.73;5.90;;;;;;;4.58;76.94;101996.06;5007516;28;20035;-73
2022/10/17 04:11:49;;;;;;;8.50;6.07;;;;;;;4.40;78.59;102026.03;4978942;28;20033;-70
2022/10/17 04:14:15;;;;;;;11.07;6.70;;;;;;;4.32;80.19;102033.94;4973508;28;20022;-70
2022/10/17 04:16:41;;;;;;;12.32;7.13;;;;;;;4.52;80.04;102030.59;4973712;28;20038;-70
2022/10/17 04:19:06;;;;;;;9.63;6.53;;;;;;;4.36;79.63;101977.22;4982026;28;20042;-70
2022/10/17 04:21:31;;;;;;;9.05;5.90;;;;;;;4.79;79.35;102041.38;4981837;28;20696;-73
2022/10/17 04:23:59;;;;;;;18.38;7.97;;;;;;;4.94;77.77;102046.91;4970601;28;20117;-73
2022/10/17 04:26:45;;;;;;;16.50;10.18;;;;;;;5.01;76.46;102044.13;4987913;28;20504;-72
2022/10/17 04:29:10;;;;;;;11.73;7.72;;;;;;;4.95;74.94;102037.59;4969706;28;20035;-72
2022/10/17 04:31:36;;;;;;;12.60;6.95;;;;;;;4.78;75.22;102023.34;4954227;28;20038;-72
2022/10/17 04:34:02;;;;;;;11.00;6.68;;;;;;;4.84;75.45;102049.47;4970977;28;20042;-71
2022/10/17 04:36:27;;;;;;;12.65;6.10;;;;;;;4.62;76.09;102056.94;4980090;28;20031;-70
2022/10/17 04:38:53;;;;;;;13.52;6.25;;;;;;;4.72;76.93;102049.28;4971476;28;20050;-73
2022/10/17 04:41:18;;;;;;;11.80;6.07;;;;;;;4.78;76.12;102056.59;4986947;28;20034;-68
2022/10/17 04:43:44;;;;;;;17.10;8.73;;;;;;;4.74;76.62;102036.66;4970621;28;20035;-69
2022/10/17 04:46:12;;;;;;;10.88;7.30;;;;;;;4.92;76.09;102057.78;4970780;28;20413;-71
2022/10/17 04:48:39;;;;;;;15.00;6.15;;;;;;;4.83;76.62;102068.13;4970646;28;20081;-69
2022/10/17 04:51:07;;;;;;;11.82;6.13;;;;;;;4.84;76.83;102058.03;4970701;28;20081;-70
2022/10/17 04:53:34;;;;;;;12.73;6.82;;;;;;;4.68;77.48;102032.78;4986861;28;20525;-70
2022/10/17 04:56:00;;;;;;;12.80;6.88;;;;;;;4.94;77.39;102071.63;4970982;28;20066;-70
2022/10/17 04:58:28;;;;;;;33.58;8.10;;;;;;;4.81;77.09;102019.38;4968136;28;20165;-70
2022/10/17 05:00:54;;;;;;;19.80;9.82;;;;;;;5.16;77.04;102064.13;4949653;28;20172;-71
2022/10/17 05:03:20;;;;;;;15.00;7.15;;;;;;;5.26;77.03;102069.22;4971676;28;20056;-69
2022/10/17 05:05:46;;;;;;;15.52;8.13;;;;;;;5.39;76.38;102066.03;4973758;28;20096;-73
2022/10/17 05:08:12;;;;;;;21.73;9.10;;;;;;;5.50;76.02;102070.38;4981968;28;20027;-73
2022/10/17 05:10:42;;;;;;;15.95;9.20;;;;;;;5.33;75.92;102025.44;4980918;28;20038;-73
2022/10/17 05:13:09;;;;;;;22.48;8.23;;;;;;;5.22;75.36;101982.69;4982328;28;20503;-73
2022/10/17 05:15:35;;;;;;;15.77;7.45;;;;;;;5.70;75.37;102075.38;4982665;28;20468;-73
2022/10/17 05:18:01;;;;;;;19.10;7.25;;;;;;;5.57;75.20;102047.81;4980855;28;20089;-72
2022/10/17 05:20:27;;;;;;;18.00;6.82;;;;;;;5.61;75.24;102067.84;4982471;28;20046;-73
2022/10/17 05:22:52;;;;;;;12.35;6.80;;;;;;;5.56;74.96;102023.88;4981991;28;20015;-72
2022/10/17 05:25:18;;;;;;;16.40;7.60;;;;;;;5.61;74.78;102019.16;4988926;28;20027;-73
2022/10/17 05:27:44;;;;;;;12.70;7.60;;;;;;;5.75;75.32;102068.97;4992059;28;20026;-73
2022/10/17 05:30:10;;;;;;;15.15;6.88;;;;;;;5.39;76.87;102057.47;4991648;28;20490;-72
2022/10/17 05:32:35;;;;;;;16.83;7.88;;;;;;;5.40;78.18;102082.31;4991541;28;20034;-71
2022/10/17 05:35:03;;;;;;;13.30;8.63;;;;;;;5.41;78.59;102078.94;4991494;28;20026;-72
2022/10/17 05:37:29;;;;;;;16.75;9.18;;;;;;;5.56;78.50;102079.34;4991800;28;20037;-75
2022/10/17 05:39:55;;;;;;;17.88;9.00;;;;;;;5.38;78.66;102036.06;4991557;28;20089;-72
2022/10/17 05:42:20;;;;;;;21.65;9.13;;;;;;;5.77;78.38;102082.78;4991241;28;20038;-70
2022/10/17 05:44:45;;;;;;;14.68;7.72;;;;;;;5.95;78.53;102093.66;4991501;28;20045;-73
2022/10/17 05:47:11;;;;;;;18.95;8.20;;;;;;;6.09;77.11;102084.56;4991528;28;20030;-71
2022/10/17 05:49:36;;;;;;;14.68;8.18;;;;;;;6.34;76.52;102089.97;4991557;28;20469;-72
2022/10/17 05:52:02;;;;;;;17.45;8.18;;;;;;;6.61;76.54;102109.25;4991116;28;20030;-74
2022/10/17 05:54:27;;;;;;;12.20;9.55;;;;;;;6.82;76.27;102115.94;4991568;28;20038;-72
2022/10/17 05:56:54;;;;;;;14.85;9.00;;;;;;;7.07;75.36;102113.66;4991442;28;20041;-74
2022/10/17 05:59:20;;;;;;;18.55;9.38;;;;;;;7.03;74.69;102074.00;4991478;28;20026;-73
2022/10/17 06:01:46;;;;;;;16.38;10.18;;;;;;;7.32;73.48;102125.81;4991308;28;20084;-74
2022/10/17 06:04:11;;;;;;;13.07;9.20;;;;;;;7.23;74.12;102116.63;4991404;28;20497;-74
2022/10/17 06:06:39;;;;;;;15.20;10.35;;;;;;;7.41;74.10;102123.94;4991047;28;20036;-74
2022/10/17 06:09:05;;;;;;;18.83;10.85;;;;;;;7.67;73.65;102119.91;4991123;28;20489;-74
2022/10/17 06:11:30;;;;;;;16.05;9.98;;;;;;;7.80;72.90;102107.19;4990982;28;20040;-77
2022/10/17 06:13:56;;;;;;;15.98;10.25;;;;;;;7.98;71.74;102110.22;4990328;28;20048;-73
2022/10/17 06:16:22;;;;;;;15.85;10.55;;;;;;;8.18;72.20;102110.78;4991537;28;20038;-74
2022/10/17 06:18:48;;;;;;;20.50;10.85;;;;;;;8.35;70.98;102122.28;4990802;28;20147;-74
2022/10/17 06:21:16;;;;;;;16.80;9.93;;;;;;;8.09;71.41;102111.91;4990941;28;20492;-74
2022/10/17 06:23:41;;;;;;;16.65;9.23;;;;;;;8.10;72.01;102130.81;4989869;28;20113;-74
2022/10/17 06:26:07;;;;;;;13.27;9.40;;;;;;;8.40;72.11;102131.28;4988885;28;20494;-74
2022/10/17 06:28:33;;;;;;;20.00;10.80;;;;;;;8.46;71.46;102097.34;4991056;28;20042;-74
2022/10/17 06:31:02;;;;;;;14.68;9.20;;;;;;;8.92;70.03;102130.66;4990774;28;20038;-74
2022/10/17 06:33:27;;;;;;;16.67;9.18;;;;;;;9.12;68.90;102124.31;4988696;28;20050;-74
2022/10/17 06:35:54;;;;;;;13.90;9.52;;;;;;;9.31;68.03;102129.97;4991340;28;20032;-72
2022/10/17 06:38:21;;;;;;;19.63;10.32;;;;;;;9.29;67.89;102133.22;4990983;28;20050;-75
2022/10/17 06:40:46;;;;;;;16.70;9.52;;;;;;;8.97;68.66;102094.16;4990957;28;20030;-74
2022/10/17 06:43:12;;;;;;;15.00;9.57;;;;;;;9.42;68.23;102142.69;4990814;28;20481;-78
2022/10/17 06:45:38;;;;;;;16.15;9.60;;;;;;;9.31;67.74;102148.00;4990919;28;20165;-75
2022/10/17 06:48:04;;;;;;;16.67;9.82;;;;;;;9.25;68.02;102108.91;4990519;28;20522;-74
2022/10/17 06:50:30;;;;;;;16.50;9.52;;;;;;;9.45;68.84;102154.09;4990681;28;20129;-74
2022/10/17 06:52:55;;;;;;;14.82;10.15;;;;;;;9.64;68.52;102152.78;4990594;28;20062;-74
2022/10/17 06:55:21;;;;;;;17.73;9.38;;;;;;;9.94;67.50;102147.91;4990361;28;20037;-74
2022/10/17 06:57:46;;;;;;;15.57;8.98;;;;;;;10.09;67.04;102140.28;4990738;28;20042;-72
2022/10/17 07:00:12;;;;;;;15.57;10.10;;;;;;;9.88;67.72;102146.69;4990699;28;20030;-73
2022/10/17 07:02:37;;;;;;;11.88;8.65;;;;;;;9.81;67.46;102123.84;4990388;28;20445;-72
2022/10/17 07:05:03;;;;;;;15.65;8.48;;;;;;;9.94;69.47;102140.16;4987305;28;20504;-74
2022/10/17 07:07:31;;;;;;;13.80;7.95;;;;;;;10.17;67.78;102137.41;4990667;28;20031;-74
2022/10/17 07:09:57;;;;;;;14.00;8.48;;;;;;;10.12;67.64;102130.13;4990550;28;20188;-74
2022/10/17 07:12:23;;;;;;;21.60;9.32;;;;;;;10.21;68.97;102138.50;4990643;28;20034;-74
2022/10/17 07:14:49;;;;;;;12.95;8.73;;;;;;;10.54;67.68;102143.19;4990654;28;20501;-74
2022/10/17 07:17:15;;;;;;;14.80;8.73;;;;;;;10.60;66.59;102139.31;4990373;28;20125;-78
2022/10/17 07:19:42;;;;;;;17.63;8.93;;;;;;;10.82;66.96;102148.44;4988261;28;20036;-74
2022/10/17 07:22:08;;;;;;;12.23;8.27;;;;;;;11.15;66.38;102147.06;4990420;28;20477;-74
2022/10/17 07:24:33;;;;;;;13.20;8.13;;;;;;;11.35;64.28;102144.78;4990925;28;20034;-74
2022/10/17 07:26:59;;;;;;;10.48;7.78;;;;;;;11.16;64.68;102119.50;4993948;28;20037;-74
2022/10/17 07:29:25;;;;;;;13.90;8.13;;;;;;;11.25;65.21;102142.44;4993626;28;20036;-74
2022/10/17 07:31:50;;;;;;;15.35;8.73;;;;;;;11.40;64.68;102139.88;4993293;28;20034;-75
2022/10/17 07:34:16;;;;;;;10.35;7.40;;;;;;;11.58;64.26;102140.13;5007814;28;20477;-74
2022/10/17 07:36:42;;;;;;;12.73;8.25;;;;;;;11.83;62.93;102145.03;4988316;28;20035;-72
2022/10/17 07:39:08;;;;;;;13.88;7.78;;;;;;;12.05;62.59;102143.72;4982913;28;20035;-73
2022/10/17 07:41:33;;;;;;;13.02;7.45;;;;;;;12.10;62.54;102126.75;4982768;28;20029;-71
2022/10/17 07:43:59;;;;;;;15.65;10.10;;;;;;;12.28;62.68;102132.09;4984578;28;20069;-72
2022/10/17 07:46:24;;;;;;;13.00;7.32;;;;;;;12.23;61.67;102102.47;4982970;28;20026;-77
2022/10/17 07:48:50;;;;;;;12.35;7.60;;;;;;;12.50;61.53;102133.31;4980021;28;20034;-75
2022/10/17 07:51:17;;;;;;;10.95;6.95;;;;;;;12.55;61.16;102127.59;4985415;28;20027;-71
2022/10/17 07:53:43;;;;;;;13.68;7.80;;;;;;;12.63;60.69;102130.59;4993475;28;20025;-70
2022/10/17 07:56:09;;;;;;;15.85;7.50;;;;;;;12.78;60.73;102134.03;4993455;28;20046;-72
2022/10/17 07:58:36;;;;;;;13.18;7.30;;;;;;;12.87;59.83;102127.56;4984457;28;20097;-75
2022/10/17 08:01:03;;;;;;;12.52;7.00;;;;;;;12.95;59.41;102118.50;4981793;28;20022;-76
2022/10/17 08:03:29;;;;;;;14.18;8.30;;;;;;;13.07;59.13;102120.84;4983452;28;20026;-75
2022/10/17 08:05:59;;;;;;;16.13;6.88;;;;;;;13.13;59.09;102116.00;4997673;28;20043;-75
2022/10/17 08:08:25;;;;;;;11.85;6.85;;;;;;;13.26;59.02;102122.72;4979624;28;20561;-74
2022/10/17 08:10:51;;;;;;;7.97;5.43;;;;;;;13.29;57.87;102117.69;4980984;28;20088;-76
2022/10/17 08:13:16;;;;;;;15.25;6.00;;;;;;;13.39;57.72;102116.50;4981905;28;20061;-74
2022/10/17 08:15:41;;;;;;;15.88;5.60;;;;;;;13.50;58.94;102096.31;4979435;28;20405;-74
2022/10/17 08:18:07;;;;;;;8.43;4.88;;;;;;;13.68;58.53;102105.03;4980648;28;20115;-74
2022/10/17 08:20:32;;;;;;;11.82;6.03;;;;;;;13.90;57.01;102111.28;4978544;28;20026;-74
2022/10/17 08:22:58;;;;;;;12.55;5.40;;;;;;;13.90;56.85;102114.75;4980019;28;20042;-71
2022/10/17 08:25:23;;;;;;;10.40;5.50;;;;;;;14.04;56.02;102114.56;4978001;28;20046;-72
2022/10/17 08:27:49;;;;;;;6.57;4.35;;;;;;;14.16;55.87;102112.56;4982003;28;20503;-71
2022/10/17 08:30:15;;;;;;;6.68;3.80;;;;;;;14.26;55.42;102115.63;4986086;28;20785;-71
2022/10/17 08:32:41;;;;;;;10.07;3.92;;;;;;;14.38;55.05;102108.38;4982521;28;20081;-72
2022/10/17 08:35:06;;;;;;;6.72;3.75;;;;;;;14.47;54.73;102107.97;4998584;28;20034;-74
2022/10/17 08:37:32;;;;;;;7.20;3.65;;;;;;;14.49;54.30;102107.22;4981329;28;20023;-76
2022/10/17 08:39:57;;;;;;;11.35;4.13;;;;;;;14.49;54.05;102114.09;4982808;28;20456;-74
2022/10/17 08:42:50;;;;;;;6.88;4.20;;;;;;;14.59;54.70;102113.72;4983262;28;20543;-76
2022/10/17 08:45:50;;;;;;;11.20;5.55;;;;;;;14.70;54.98;102114.25;4980231;28;20406;-76
2022/10/17 08:48:19;;;;;;;9.95;5.07;;;;;;;14.85;53.75;102111.47;4980187;28;20134;-73
2022/10/17 08:50:47;;;;;;;7.80;4.80;;;;;;;14.92;54.06;102097.06;4981346;28;20057;-79
2022/10/17 08:53:21;;;;;;;8.48;4.60;;;;;;;15.09;53.82;102093.50;4979144;28;20053;-72
2022/10/17 08:55:49;;;;;;;5.32;3.80;;;;;;;15.20;53.38;102099.16;4981338;28;20049;-72
2022/10/17 08:58:19;;;;;;;14.70;4.25;;;;;;;15.31;53.37;102087.50;4982570;28;20109;-75
2022/10/17 09:01:23;;;;;;;7.78;4.43;;;;;;;15.56;52.29;102078.16;4983001;28;20019;-74
2022/10/17 09:04:09;;;;;;;11.25;5.13;;;;;;;15.91;52.07;102081.38;4941757;29;20526;-74
2022/10/17 09:06:39;;;;;;;10.38;4.53;;;;;;;16.20;51.77;102078.16;4940811;29;20118;-73
2022/10/17 09:09:20;;;;;;;9.13;4.20;;;;;;;16.31;51.31;102075.16;4940064;29;20031;-74
2022/10/17 09:11:55;;;;;;;8.70;3.55;;;;;;;16.50;51.01;102076.75;4941837;29;20391;-71
2022/10/17 09:14:46;;;;;;;9.38;3.20;;;;;;;16.56;51.33;102076.13;4941249;29;20502;-75
2022/10/17 09:17:30;;;;;;;9.40;3.88;;;;;;;16.69;52.20;102079.19;4883294;29;20536;-71
2022/10/17 09:19:59;;;;;;;8.93;4.88;;;;;;;16.58;52.88;102077.03;4882189;29;20515;-74
2022/10/17 09:22:32;;;;;;;11.70;3.97;;;;;;;16.76;53.19;102075.94;4883217;29;20480;-72
2022/10/17 09:25:05;;;;;;;7.88;3.22;;;;;;;16.91;52.60;102071.34;4884134;29;20026;-73
2022/10/17 09:27:52;;;;;;;5.30;3.13;;;;;;;17.18;51.47;102070.56;4882978;29;20037;-71
2022/10/17 09:30:37;;;;;;;4.45;3.13;;;;;;;17.29;51.26;102063.13;4882213;29;20036;-74
2022/10/17 09:33:10;;;;;;;7.85;3.35;;;;;;;17.27;51.37;102049.09;4875492;29;20037;-72
2022/10/17 09:35:37;;;;;;;8.93;3.53;;;;;;;17.22;51.04;102066.34;4883643;29;20083;-74
2022/10/17 09:38:03;;;;;;;6.80;3.13;;;;;;;17.15;51.41;102062.63;4883290;29;20032;-73
2022/10/17 09:40:33;;;;;;;8.02;3.55;;;;;;;17.33;51.93;102064.09;4901164;29;20051;-74
2022/10/17 09:43:04;;;;;;;9.02;3.47;;;;;;;17.30;50.52;102023.13;4921554;29;20115;-76
2022/10/17 11:00:11;;;;;;;11.35;3.97;;;;;;;19.63;48.91;101988.94;5052338;22;20060;-67
2022/10/17 11:02:51;;;;;;;21.10;5.93;;;;;;;19.55;49.06;101986.09;5014195;28;20049;-67
2022/10/17 11:05:20;;;;;;;13.27;4.85;;;;;;;19.44;48.94;101985.84;5010093;28;20033;-72
2022/10/17 11:07:55;;;;;;;9.40;4.38;;;;;;;19.52;48.97;101991.28;5013274;28;20409;-70
2022/10/17 11:10:34;;;;;;;11.35;4.85;;;;;;;19.54;48.97;101985.22;5010109;28;20033;-70
2022/10/17 11:13:10;;;;;;;9.90;4.90;;;;;;;19.72;47.33;101973.41;5013613;28;20088;-70
2022/10/17 11:15:40;;;;;;;24.95;5.78;;;;;;;19.75;47.62;101952.53;5013657;28;20030;-70
2022/10/17 11:18:11;;;;;;;23.38;7.28;;;;;;;20.10;46.80;101985.63;5012661;28;20108;-71
2022/10/17 11:20:52;;;;;;;13.55;5.00;;;;;;;20.30;47.59;101975.56;5013506;28;20113;-70
2022/10/17 11:23:36;;;;;;;12.93;3.75;;;;;;;20.48;46.98;101969.81;5013807;28;20080;-69
2022/10/17 11:26:06;;;;;;;8.23;3.78;;;;;;;20.52;48.71;101972.56;5013433;28;20059;-72
2022/10/17 11:28:31;;;;;;;12.82;4.30;;;;;;;20.43;47.81;101974.09;5013480;28;20483;-70
2022/10/17 11:31:08;;;;;;;13.27;4.45;;;;;;;19.90;48.95;101940.63;5012738;28;20038;-70
2022/10/17 11:33:48;;;;;;;25.48;6.70;;;;;;;19.96;48.65;101967.88;5013198;28;20029;-70
2022/10/17 11:36:16;;;;;;;19.88;5.35;;;;;;;19.78;48.62;101983.16;5013337;28;20041;-72
2022/10/17 11:38:48;;;;;;;15.27;4.93;;;;;;;19.83;49.96;101971.06;5013241;28;20160;-71
2022/10/17 11:41:23;;;;;;;7.13;2.88;;;;;;;20.16;47.16;101977.91;5013156;28;20671;-68
2022/10/17 11:44:15;;;;;;;6.35;3.58;;;;;;;20.28;46.90;101969.44;5014728;28;20030;-69
2022/10/17 11:46:43;;;;;;;8.73;3.60;;;;;;;20.38;47.26;101979.25;5013271;28;20030;-69
2022/10/17 11:49:17;;;;;;;11.05;3.90;;;;;;;20.35;45.85;101948.59;5009976;28;20034;-70
2022/10/17 11:52:01;;;;;;;7.60;3.00;;;;;;;20.59;46.16;101951.69;5010454;28;20503;-72
2022/10/17 11:54:51;;;;;;;15.40;4.45;;;;;;;20.70;45.95;101947.53;5007837;28;20404;-70
2022/10/17 11:57:25;;;;;;;;;;;;;;;20.73;45.86;101952.84;4994215;28;20030;-72
2022/10/17 11:59:53;;;;;;;7.57;3.20;;;;;;;20.82;45.54;101954.75;5006567;28;19999;-72
2022/10/17 12:02:54;;;;;;;15.85;3.67;;;;;;;20.95;44.73;101943.63;5025209;28;20485;-72
2022/10/17 12:05:49;;;;;;;8.30;3.00;;;;;;;20.80;45.40;101949.47;4932790;29;20455;-72
2022/10/17 12:08:24;;;;;;;6.28;2.92;;;;;;;20.20;45.92;101909.84;4932657;29;20024;-72
2022/10/17 12:10:55;;;;;;;11.13;3.08;;;;;;;20.27;46.67;101946.66;4929408;29;20059;-70
2022/10/17 12:13:26;;;;;;;7.35;3.67;;;;;;;20.13;46.94;101947.25;4928870;29;20043;-74
2022/10/17 12:15:56;;;;;;;13.10;4.50;;;;;;;20.08;46.02;101942.78;4934135;29;20051;-74
2022/10/17 12:18:26;;;;;;;36.92;9.27;;;;;;;20.00;47.63;101937.34;4931992;29;20179;-74
2022/10/17 12:20:59;;;;;;;40.15;10.05;;;;;;;20.15;46.43;101935.06;4932090;29;20054;-73
2022/10/17 12:23:31;;;;;;;14.90;4.55;;;;;;;20.31;45.96;101933.66;4931976;29;20223;-73
2022/10/17 12:26:08;;;;;;;10.00;3.75;;;;;;;20.32;46.94;101889.94;4938950;29;20614;-71
2022/10/17 12:28:36;;;;;;;8.70;2.78;;;;;;;20.16;46.86;101836.31;4928574;29;20052;-69
2022/10/17 12:31:24;;;;;;;14.48;4.18;;;;;;;20.72;47.67;101935.31;4930270;29;20044;-70
2022/10/17 12:33:58;;;;;;;8.90;3.65;;;;;;;20.64;46.09;101926.41;4931559;29;20457;-70
2022/10/17 12:36:26;;;;;;;7.38;2.88;;;;;;;20.52;45.72;101933.19;4932148;29;20044;-73
2022/10/17 12:39:13;;;;;;;8.10;3.13;;;;;;;20.44;46.11;101928.66;4932185;29;20615;-71
2022/10/17 12:41:38;;;;;;;4.95;2.97;;;;;;;20.23;47.13;101921.25;4959651;28;20128;-68
2022/10/17 12:44:13;;;;;;;12.48;4.32;;;;;;;20.20;47.20;101928.19;5025794;28;20112;-69
2022/10/17 12:47:09;;;;;;;18.45;5.32;;;;;;;20.05;46.22;101891.19;5029951;28;20034;-72
2022/10/17 12:49:40;;;;;;;7.28;4.03;;;;;;;20.07;47.32;101891.19;5036077;28;20031;-67
2022/10/17 12:52:18;;;;;;;6.80;3.42;;;;;;;20.22;46.64;101932.59;5023693;28;20033;-70